This is the latest recevied weather packets stored in our database for station/object SQ5OUZ-8. If no packets are shown the sender has not sent any weather packets the latest 10 day(s).
| Time | Temp. | Humidity | Pressure | Rain* | Wind** | Luminosity | Snow |
|---|---|---|---|---|---|---|---|
| 1777482775 | 7.78° C | 39% | 1030 hPa | - | - | - | - |
| 1777481618 | 8.33° C | 39% | 1030 hPa | - | - | - | - |
| 1777480451 | 7.78° C | 40% | 1029 hPa | - | - | - | - |
| 1777479409 | 8.33° C | 39% | 1030 hPa | - | - | - | - |
| 1777478299 | 8.89° C | 38% | 1029 hPa | - | - | - | - |
| 1777477253 | 8.89° C | 39% | 1029 hPa | - | - | - | - |
| 1777476265 | 7.78° C | 40% | 1029 hPa | - | - | - | - |
| 1777475294 | 8.89° C | 38% | 1029 hPa | - | - | - | - |
| 1777474259 | 8.33° C | 39% | 1029 hPa | - | - | - | - |
| 1777473220 | 8.33° C | 39% | 1029 hPa | - | - | - | - |
| 1777472132 | 8.89° C | 39% | 1029 hPa | - | - | - | - |
| 1777471095 | 8.33° C | 39% | 1029 hPa | - | - | - | - |
| 1777469997 | 11.11° C | 34% | 1029 hPa | - | - | - | - |
| 1777468997 | 9.44° C | 37% | 1029 hPa | - | - | - | - |
| 1777467868 | 8.33° C | 39% | 1029 hPa | - | - | - | - |
| 1777466728 | 8.33° C | 39% | 1029 hPa | - | - | - | - |
| 1777465576 | 7.78° C | 39% | 1029 hPa | - | - | - | - |
| 1777464413 | 8.33° C | 37% | 1029 hPa | - | - | - | - |
| 1777463257 | 10.56° C | 31% | 1029 hPa | - | - | - | - |
| 1777462112 | 10° C | 34% | 1029 hPa | - | - | - | - |
| 1777460937 | 12.78° C | 27% | 1028 hPa | - | - | - | - |
| 1777459901 | 12.78° C | 27% | 1028 hPa | - | - | - | - |
| 1777458776 | 10.56° C | 32% | 1028 hPa | - | - | - | - |
| 1777457735 | 11.11° C | 29% | 1028 hPa | - | - | - | - |
| 1777456769 | 12.22° C | 28% | 1028 hPa | - | - | - | - |
* Rain since midnight (hover to see other rain measurements)
** Current wind speed in m/s (hover to see current wind gust speed)